createdAt,value
2023-04-23T00:02:19.700Z,74.80
2023-04-23T00:10:26.165Z,75.00
2023-04-23T00:18:34.280Z,72.40
2023-04-23T00:26:39.779Z,71.00
2023-04-23T00:34:49.085Z,69.20
2023-04-23T00:42:55.664Z,68.60
2023-04-23T00:51:08.063Z,67.80
2023-04-23T00:59:13.727Z,68.00
2023-04-23T01:07:25.089Z,68.30
2023-04-23T01:15:31.128Z,67.90
2023-04-23T01:23:39.293Z,67.30
2023-04-23T01:31:45.735Z,68.10
2023-04-23T01:39:54.417Z,68.10
2023-04-23T01:48:00.120Z,67.70
2023-04-23T01:56:10.067Z,67.90
2023-04-23T02:04:16.986Z,69.20
2023-04-23T02:12:25.237Z,71.80
2023-04-23T02:20:30.759Z,73.40
2023-04-23T02:28:39.131Z,74.70
2023-04-23T02:36:44.647Z,75.60
2023-04-23T02:44:52.849Z,75.40
2023-04-23T02:52:58.408Z,75.10
2023-04-23T03:01:07.226Z,75.90
2023-04-23T03:09:12.880Z,75.60
2023-04-23T03:17:21.088Z,76.20
2023-04-23T03:25:27.046Z,77.20
2023-04-23T03:33:35.312Z,76.80
2023-04-23T03:41:41.462Z,76.00
2023-04-23T03:49:51.527Z,76.50
2023-04-23T03:57:57.104Z,76.20
2023-04-23T04:06:08.272Z,75.50
2023-04-23T04:14:13.998Z,75.70
2023-04-23T04:22:22.286Z,76.90
2023-04-23T04:30:27.952Z,77.00
2023-04-23T04:38:38.055Z,75.60
2023-04-23T04:46:43.999Z,74.70
2023-04-23T04:54:52.080Z,74.50
2023-04-23T05:02:57.844Z,73.70
2023-04-23T05:11:06.864Z,73.90
2023-04-23T05:19:12.379Z,74.40
2023-04-23T05:27:20.589Z,74.80
2023-04-23T05:35:26.131Z,72.90
2023-04-23T05:43:34.286Z,72.80
2023-04-23T05:51:39.946Z,71.10
2023-04-23T05:59:48.064Z,68.60
2023-04-23T06:07:53.508Z,67.70
2023-04-23T06:16:01.857Z,67.30
2023-04-23T06:24:07.701Z,67.40
2023-04-23T06:32:17.299Z,67.60
2023-04-23T06:40:24.565Z,67.80
2023-04-23T06:48:32.623Z,67.90
2023-04-23T06:56:38.138Z,66.60
2023-04-23T07:04:47.025Z,65.80
2023-04-23T07:12:53.720Z,64.50
2023-04-23T07:21:01.801Z,63.60
2023-04-23T07:29:08.224Z,63.20
2023-04-23T07:37:16.372Z,63.00
2023-04-23T07:45:22.600Z,63.60
2023-04-23T07:53:31.183Z,61.00
2023-04-23T08:01:37.023Z,60.30
2023-04-23T08:09:45.909Z,58.30
2023-04-23T08:17:51.572Z,56.40
2023-04-23T08:25:59.642Z,55.80
2023-04-23T08:34:05.295Z,52.60
2023-04-23T08:42:21.260Z,52.30
2023-04-23T08:50:28.266Z,50.00
2023-04-23T08:58:37.139Z,50.00
2023-04-23T09:06:42.697Z,51.00
2023-04-23T09:14:52.089Z,50.00
2023-04-23T09:22:57.550Z,48.00
2023-04-23T09:31:09.151Z,48.00
2023-04-23T09:39:18.465Z,48.40
2023-04-23T09:47:27.247Z,48.40
2023-04-23T09:55:35.935Z,47.40
2023-04-23T10:03:47.516Z,46.70
2023-04-23T10:11:54.676Z,46.00
2023-04-23T10:20:04.657Z,46.20
2023-04-23T10:28:12.385Z,46.90
2023-04-23T10:36:20.968Z,47.60
2023-04-23T10:44:46.997Z,48.60
2023-04-23T10:52:54.973Z,49.30
2023-04-23T11:01:01.208Z,50.30
2023-04-23T11:09:41.912Z,50.40
2023-04-23T11:18:03.315Z,48.90
2023-04-23T11:26:11.914Z,48.70
2023-04-23T11:34:18.182Z,48.60
2023-04-23T11:42:28.616Z,48.40
2023-04-23T11:50:36.461Z,42.10
2023-04-23T11:58:44.569Z,32.80
2023-04-23T12:06:51.528Z,28.10
2023-04-23T12:15:07.493Z,25.40
2023-04-23T12:23:13.109Z,26.10
2023-04-23T12:31:26.725Z,25.10
2023-04-23T12:39:34.175Z,27.50
2023-04-23T12:47:42.209Z,32.80
2023-04-23T12:55:48.675Z,36.00
2023-04-23T13:03:57.296Z,39.40
2023-04-23T13:12:02.902Z,42.00
2023-04-23T13:20:12.194Z,45.80
2023-04-23T13:28:17.905Z,47.90
2023-04-23T13:36:27.137Z,52.20
2023-04-23T13:44:32.640Z,53.40
2023-04-23T13:52:41.266Z,54.90
2023-04-23T14:00:47.276Z,55.60
2023-04-23T14:08:55.361Z,57.10
2023-04-23T14:17:01.527Z,59.40
2023-04-23T14:25:13.398Z,62.00
2023-04-23T14:33:18.882Z,60.30
2023-04-23T14:41:27.029Z,58.70
2023-04-23T14:49:32.539Z,58.70
2023-04-23T14:57:40.623Z,61.10
2023-04-23T15:05:46.316Z,62.10
2023-04-23T15:14:04.449Z,62.20
2023-04-23T15:22:09.968Z,63.50
2023-04-23T15:30:18.471Z,58.90
2023-04-23T15:38:24.968Z,62.80
2023-04-23T15:46:33.190Z,63.50
2023-04-23T15:54:38.828Z,63.80
2023-04-23T16:02:47.174Z,63.50
2023-04-23T16:10:52.799Z,64.20
2023-04-23T16:19:02.223Z,65.50
2023-04-23T16:27:11.060Z,66.60
2023-04-23T16:35:19.386Z,65.80
2023-04-23T16:43:24.962Z,67.70
2023-04-23T16:51:33.331Z,66.30
2023-04-23T16:59:41.010Z,67.70
2023-04-23T17:07:49.161Z,67.70
2023-04-23T17:15:54.692Z,68.50
2023-04-23T17:24:05.144Z,73.70
2023-04-23T17:32:10.844Z,72.30
2023-04-23T17:40:19.556Z,72.10
2023-04-23T17:48:26.259Z,73.30
2023-04-23T17:56:35.006Z,75.80
2023-04-23T18:04:40.707Z,77.50
2023-04-23T18:12:51.391Z,77.00
2023-04-23T18:20:57.536Z,78.80
2023-04-23T18:29:05.910Z,78.90
2023-04-23T18:37:14.077Z,79.70
2023-04-23T18:45:22.216Z,80.40
2023-04-23T18:53:27.707Z,78.20
2023-04-23T19:01:38.191Z,78.40
2023-04-23T19:09:44.109Z,78.40
2023-04-23T19:17:52.784Z,77.00
2023-04-23T19:25:58.331Z,75.60
2023-04-23T19:34:06.492Z,74.50
2023-04-23T19:42:12.036Z,73.80
2023-04-23T19:50:21.116Z,75.30
2023-04-23T19:58:26.579Z,75.60
2023-04-23T20:06:36.815Z,75.90
2023-04-23T20:14:42.886Z,76.20
2023-04-23T20:22:51.488Z,76.40
2023-04-23T20:30:57.708Z,76.40
2023-04-23T20:39:08.507Z,76.70
2023-04-23T20:47:14.546Z,75.70
2023-04-23T20:55:22.828Z,75.90
2023-04-23T21:03:28.672Z,74.90
2023-04-23T21:11:36.946Z,74.30
2023-04-23T21:19:42.657Z,74.00
2023-04-23T21:27:51.172Z,74.20
2023-04-23T21:35:57.275Z,73.80
2023-04-23T21:44:05.492Z,74.30
2023-04-23T21:52:11.693Z,74.90
2023-04-23T22:00:25.190Z,75.20
2023-04-23T22:08:30.731Z,74.80
2023-04-23T22:16:39.183Z,75.20
2023-04-23T22:24:44.680Z,73.80
2023-04-23T22:32:52.837Z,73.80
2023-04-23T22:40:58.334Z,73.30
2023-04-23T22:49:08.335Z,74.60
2023-04-23T22:57:15.096Z,74.60
2023-04-23T23:05:23.604Z,74.60
2023-04-23T23:13:29.355Z,75.40
2023-04-23T23:21:37.530Z,75.60
2023-04-23T23:29:43.210Z,75.40
2023-04-23T23:37:51.546Z,76.00
2023-04-23T23:45:57.006Z,77.10
2023-04-23T23:54:05.082Z,76.80
